• Join FlightAware (Why Join?)
  • Login
  • US Flag 
02:27PM EDT


 

Airport Tracker/Info


-or-


 

Live Flight TrackerFlight Track Log ✈ EJA951 ✈ 17-Sep-2013 ✈ KHOU - KTEB

Flight Track Log - Related Links

Times and Time Zones

All times are in EDT time to prevent confusion due to time zone crossing. See the EJA951 flight status page for this flight to view local times or setup timezone preferences in your user account.

Time Position Orientation Groundspeed Altitude Reporting Facility
EDT Latitude Longitude Course Direction KTS MPH feet Rate Location/Type
03:41PM 29.6333 -95.2653 33° Northeast 161 185 800  Level Houston Center
03:42PM 29.6600 -95.2453 33° Northeast 246 283 3,100 3,060 Climbing Houston Center
03:43PM 29.7261 -95.2675 344° North 242 278 6,300 3,420 Climbing Houston Center
03:44PM 29.8017 -95.2953 342° North 273 314 10,200 3,000 Climbing Houston Center
03:45PM 29.8900 -95.3150 349° North 326 375 12,600 2,340 Climbing Houston Center
03:46PM 29.9811 -95.2647 26° Northeast 358 412 15,100 2,220 Climbing Houston Center
03:47PM 30.0775 -95.2061 28° Northeast 379 436 17,200 2,040 Climbing Houston Center
03:48PM 30.1986 -95.1331 28° Northeast 402 463 19,400 1,560 Climbing Houston Center
03:49PM 30.3008 -95.0700 28° Northeast 410 472 20,500 1,200 Climbing Houston Center
03:50PM 30.4025 -95.0078 28° Northeast 413 475 21,900 1,320 Climbing Houston Center
03:51PM 30.4961 -94.9347 34° Northeast 405 466 23,300 1,320 Climbing Houston Center
03:52PM 30.5928 -94.8608 33° Northeast 413 475 24,700 1,500 Climbing Houston Center
03:53PM 30.7119 -94.7694 33° Northeast 423 487 26,400 1,500 Climbing Houston Center
03:54PM 30.8094 -94.6933 34° Northeast 423 487 27,800 1,260 Climbing Houston Center
03:55PM 30.9097 -94.6156 34° Northeast 432 497 29,100 1,260 Climbing Houston Center
03:56PM 31.0089 -94.5383 34° Northeast 431 496 30,500 1,320 Climbing Houston Center
03:57PM 31.1092 -94.4608 33° Northeast 435 501 31,900 1,440 Climbing Houston Center
03:58PM 31.2331 -94.3647 34° Northeast 449 517 33,600 1,620 Climbing Houston Center
03:59PM 31.3308 -94.2758 38° Northeast 450 518 35,300 1,740 Climbing Houston Center
04:00PM 31.4081 -94.1642 51° Northeast 445 512 37,300 1,800 Climbing Houston Center
04:01PM 31.4861 -94.0544 50° Northeast 441 507 39,100 1,440 Climbing Houston Center
04:02PM 31.5611 -93.9442 51° Northeast 435 501 40,300 900 Climbing Houston Center
04:03PM 31.6550 -93.8097 51° Northeast 444 511 41,000 300 Climbing Houston Center
04:04PM 31.7383 -93.6900 51° Northeast 469 540 41,000  Level Houston Center
04:05PM 31.8272 -93.5603 51° Northeast 492 566 41,000  Level Houston Center
04:07PM 31.9169 -93.4306 51° Northeast 508 585 41,000  Level Houston Center
04:08PM 32.0081 -93.2975 51° Northeast 518 596 41,000  Level Houston Center
04:09PM 32.0983 -93.1639 51° Northeast 519 597 41,000  Level Houston Center
04:09PM 32.1914 -93.0317 50° Northeast 515 593 41,000  Level Fort Worth Center
04:11PM 32.2808 -92.8997 51° Northeast 515 593 41,000  Level Fort Worth Center
04:11PM 32.3719 -92.7647 51° Northeast 515 593 41,000  Level Fort Worth Center
04:12PM 32.4606 -92.6247 53° Northeast 516 594 41,000  Level Fort Worth Center
04:13PM 32.5492 -92.4919 52° Northeast 516 594 41,000  Level Fort Worth Center
04:14PM 32.6381 -92.3639 50° Northeast 509 586 41,000  Level Fort Worth Center
04:17PM 32.8314 -92.0706 52° Northeast 529 609 41,000  Level Memphis Center
04:18PM 32.9275 -91.9189 53° Northeast 517 595 41,000  Level Memphis Center
04:19PM 33.0167 -91.7867 51° Northeast 517 595 41,000  Level Memphis Center
04:20PM 33.1078 -91.6519 51° Northeast 517 595 41,000  Level Memphis Center
04:21PM 33.1947 -91.5117 53° Northeast 517 595 41,000  Level Memphis Center
04:22PM 33.2772 -91.3858 52° Northeast 517 595 41,000  Level Memphis Center
04:23PM 33.3681 -91.2478 52° Northeast 517 595 41,000  Level Memphis Center
04:24PM 33.4567 -91.1092 53° Northeast 522 601 41,000  Level Memphis Center
04:25PM 33.5450 -90.9728 52° Northeast 522 601 41,000  Level Memphis Center
04:26PM 33.6375 -90.8311 52° Northeast 522 601 41,000  Level Memphis Center
04:27PM 33.7236 -90.6919 53° Northeast 522 601 41,000  Level Memphis Center
04:28PM 33.8136 -90.5522 52° Northeast 522 601 41,000  Level Memphis Center
04:29PM 33.9036 -90.4097 53° Northeast 527 606 41,000  Level Memphis Center
04:30PM 33.9994 -90.2569 53° Northeast 522 601 41,000  Level Memphis Center
04:31PM 34.0869 -90.1139 54° Northeast 527 606 41,000  Level Memphis Center
04:32PM 34.1764 -89.9706 53° Northeast 527 606 41,000  Level Memphis Center
04:33PM 34.2656 -89.8269 53° Northeast 527 606 41,000  Level Memphis Center
04:34PM 34.3525 -89.6828 54° Northeast 527 606 41,000  Level Memphis Center
04:35PM 34.4433 -89.5361 53° Northeast 527 606 41,000  Level Memphis Center
04:36PM 34.5319 -89.3892 54° Northeast 532 612 41,000  Level Memphis Center
04:37PM 34.6206 -89.2467 53° Northeast 532 612 41,000  Level Memphis Center
04:38PM 34.7108 -89.1014 53° Northeast 532 612 41,000  Level Memphis Center
04:39PM 34.7992 -88.9561 53° Northeast 532 612 41,000  Level Memphis Center
04:40PM 34.8872 -88.8153 53° Northeast 526 605 41,000  Level Memphis Center
04:41PM 34.9750 -88.6692 54° Northeast 526 605 41,000  Level Memphis Center
04:42PM 35.0606 -88.5281 53° Northeast 526 605 41,000  Level Memphis Center
04:43PM 35.1381 -88.4069 52° Northeast 517 595 41,000  Level Memphis Center
04:44PM 35.2253 -88.2600 54° Northeast 517 595 41,000  Level Memphis Center
04:45PM 35.3103 -88.1153 54° Northeast 512 589 41,000  Level Memphis Center
04:46PM 35.4033 -87.9600 54° Northeast 512 589 41,000  Level Memphis Center
04:47PM 35.4842 -87.8200 55° Northeast 507 583 41,000  Level Memphis Center
04:48PM 35.5686 -87.6744 54° Northeast 507 583 41,000  Level Memphis Center
04:49PM 35.6508 -87.5339 54° Northeast 514 592 41,000  Level Memphis Center
04:50PM 35.7353 -87.3878 55° Northeast 514 592 41,000  Level Memphis Center
04:51PM 35.8092 -87.2572 55° Northeast 509 586 41,000  Level Memphis Center
04:52PM 35.8931 -87.1106 55° Northeast 509 586 41,000  Level Memphis Center
04:53PM 35.9767 -86.9661 54° Northeast 514 592 41,000  Level Memphis Center
04:54PM 36.0561 -86.8217 56° Northeast 514 592 41,000  Level Memphis Center
04:55PM 36.1369 -86.6664 57° Northeast 527 606 41,000  Level Memphis Center
04:56PM 36.1944 -86.4967 67° East 527 606 41,000  Level Memphis Center
04:57PM 36.2494 -86.3269 68° East 527 606 41,000  Level Memphis Center
04:58PM 36.3044 -86.1619 67° East 520 598 41,000  Level Memphis Center
04:59PM 36.3589 -85.9917 68° East 520 598 41,000  Level Memphis Center
05:00PM 36.4233 -85.7950 68° East 529 609 41,000  Level Indianapolis Center
05:01PM 36.4767 -85.6222 69° East 531 611 41,000  Level Indianapolis Center
05:02PM 36.5314 -85.4503 68° East 533 613 41,000  Level Indianapolis Center
05:03PM 36.5836 -85.2792 69° East 527 606 41,000  Level Indianapolis Center
05:04PM 36.6483 -85.0719 69° East 531 611 41,000  Level Indianapolis Center
05:05PM 36.7008 -84.9008 69° East 528 608 41,000  Level Indianapolis Center
05:06PM 36.7517 -84.7283 70° East 527 606 41,000  Level Indianapolis Center
05:07PM 36.8047 -84.5592 69° East 524 603 41,000  Level Indianapolis Center
05:08PM 36.8578 -84.3803 70° East 527 606 41,000  Level Indianapolis Center
05:09PM 36.9103 -84.2075 69° East 530 610 41,000  Level Indianapolis Center
05:10PM 36.9603 -84.0350 70° East 528 608 41,000  Level Indianapolis Center
05:11PM 37.0119 -83.8617 69° East 529 609 41,000  Level Indianapolis Center
05:12PM 37.0717 -83.6603 70° East 526 605 41,000  Level Indianapolis Center
05:13PM 37.1228 -83.4881 70° East 525 604 41,000  Level Indianapolis Center
05:14PM 37.1733 -83.3136 70° East 525 604 41,000  Level Indianapolis Center
05:15PM 37.2253 -83.1400 69° East 526 605 41,000  Level Indianapolis Center
05:16PM 37.2744 -82.9631 71° East 528 608 41,000  Level Indianapolis Center
05:17PM 37.3250 -82.7881 70° East 527 606 41,000  Level Indianapolis Center
05:19PM 37.3747 -82.6128 70° East 528 608 41,000  Level Indianapolis Center
05:20PM 37.4311 -82.4100 71° East 527 606 41,000  Level Indianapolis Center
05:21PM 37.4800 -82.2372 70° East 524 603 41,000  Level Indianapolis Center
05:22PM 37.5286 -82.0608 71° East 529 609 41,000  Level Indianapolis Center
05:23PM 37.5767 -81.8872 71° East 525 604 41,000  Level Indianapolis Center
05:24PM 37.6236 -81.7097 71° East 531 611 41,000  Level Indianapolis Center
05:25PM 37.6797 -81.5036 71° East 531 611 41,000  Level Indianapolis Center
05:26PM 37.7197 -81.3517 72° East 529 609 41,000  Level Indianapolis Center
05:27PM 37.7739 -81.1461 72° East 529 609 41,000  Level Indianapolis Center
05:28PM 37.7919 -80.9650 83° East 534 615 41,000  Level Indianapolis Center
05:29PM 37.8028 -80.7806 86° East 540 621 41,000  Level Indianapolis Center
05:30PM 37.8142 -80.6022 85° East 537 618 41,000  Level Washington Center
05:31PM 37.8258 -80.4189 85° East 532 612 41,000  Level Washington Center
05:32PM 37.8394 -80.2331 85° East 532 612 41,000  Level Washington Center
05:33PM 37.8508 -80.0444 86° East 532 612 41,000  Level Washington Center
05:34PM 37.8611 -79.8739 86° East 532 612 41,000  Level Washington Center
05:35PM 37.8719 -79.6825 86° East 532 612 41,000  Level Washington Center
05:36PM 37.8844 -79.4964 85° East 532 612 41,000  Level Washington Center
05:37PM 37.8947 -79.3075 86° East 532 612 41,000  Level Washington Center
05:38PM 37.9044 -79.1211 86° East 532 612 41,000  Level Washington Center
05:39PM 37.9244 -78.9325 82° East 532 612 41,000  Level Washington Center
05:40PM 37.9486 -78.7308 81° East 537 618 41,000  Level Washington Center
05:41PM 37.9722 -78.5447 81° East 537 618 41,000  Level Washington Center
05:42PM 37.9933 -78.3583 82° East 537 618 41,000  Level Washington Center
05:43PM 38.0142 -78.1747 82° East 537 618 41,000  Level Washington Center
05:44PM 38.0756 -78.0344 61° Northeast 518 596 41,000  Level Washington Center
05:45PM 38.1494 -77.8756 59° Northeast 512 589 41,000  Level Washington Center
05:46PM 38.2272 -77.7222 57° Northeast 506 582 41,000  Level Washington Center
05:47PM 38.3031 -77.5681 58° Northeast 506 582 41,000  Level Washington Center
05:48PM 38.3783 -77.4139 58° Northeast 526 605 41,000  Level Washington Center
05:49PM 38.4722 -77.2731 50° Northeast 520 598 41,000 -300 Level Washington Center
05:50PM 38.5761 -77.1506 43° Northeast 511 588 40,500 -780 Descending Washington Center
05:51PM 38.6778 -77.0222 45° Northeast 506 582 39,500 -780 Descending Washington Center
05:52PM 38.7814 -76.8911 45° Northeast 506 582 39,000 -300 Descending Washington Center
05:53PM 38.8847 -76.7650 44° Northeast 511 588 38,900 -1,680 Descending Washington Center
05:54PM 38.9797 -76.6436 45° Northeast 499 574 35,700 -4,320 Descending Washington Center
05:55PM 39.0786 -76.5194 44° Northeast 493 567 30,500 -5,340 Descending Washington Center
05:56PM 39.1794 -76.3922 44° Northeast 493 567 25,300 -3,300 Descending Washington Center
05:57PM 39.2742 -76.2725 44° Northeast 481 554 24,000 -660 Descending Washington Center
05:58PM 39.3747 -76.1447 44° Northeast 481 554 24,000 -1,620 Level Washington Center
06:00PM 39.6000 -75.8667 44° Northeast 457 526 18,900 -2,340 Descending Philadelphia TRACON
06:01PM 39.6833 -75.7500 47° Northeast 430 495 16,500 -2,760 Descending Philadelphia TRACON
06:02PM 39.7667 -75.6333 47° Northeast 418 481 13,400 -1,800 Descending Philadelphia TRACON
06:03PM 39.8500 -75.5500 38° Northeast 403 464 13,000 -240 Descending Philadelphia TRACON
06:04PM 39.9333 -75.4667 37° Northeast 321 369 13,000  Level Philadelphia TRACON
06:05PM 40.0000 -75.4167 30° Northeast 301 346 13,000  Level Philadelphia TRACON
06:06PM 40.0667 -75.3500 37° Northeast 307 353 13,000  Level Philadelphia TRACON
06:07PM 40.1333 -75.2833 37° Northeast 303 349 13,000 -600 Level Philadelphia TRACON
06:08PM 40.2000 -75.2167 37° Northeast 300 345 11,900 -1,320 Descending Philadelphia TRACON
06:09PM 40.2667 -75.1500 37° Northeast 289 333 10,400 -1,560 Descending Philadelphia TRACON
06:10PM 40.3667 -75.0500 37° Northeast 271 312 8,000 -1,380 Descending New York TRACON
06:11PM 40.4167 -74.9833 45° Northeast 265 305 7,000 -900 Descending New York TRACON
06:12PM 40.4667 -74.9167 45° Northeast 262 302 6,200 -1,200 Descending New York TRACON
06:13PM 40.4833 -74.8333 75° East 263 303 4,700 -1,500 Descending New York TRACON
06:14PM 40.5000 -74.7333 78° East 258 297 3,200 -900 Descending New York TRACON
06:15PM 40.5167 -74.6500 75° East 259 298 3,000 -120 Descending New York TRACON
06:16PM 40.5333 -74.5500 78° East 254 292 3,000  Level New York TRACON
06:17PM 40.5667 -74.4833 57° Northeast 251 289 3,000  Level New York TRACON
06:18PM 40.6167 -74.4000 52° Northeast 260 299 3,000  Level New York TRACON
06:19PM 40.6667 -74.3333 45° Northeast 256 295 3,000  Level New York TRACON
06:20PM 40.7167 -74.2667 45° Northeast 233 268 3,000 -360 Level New York TRACON
06:21PM 40.7500 -74.2167 49° Northeast 213 245 2,300 -780 Descending New York TRACON
06:22PM 40.7833 -74.1667 49° Northeast 185 213 1,500 -660 Descending New York TRACON
06:23PM 40.8167 -74.1167 49° Northeast 152 175 1,000 -600 Descending New York TRACON
06:24PM 40.8333 -74.0833 57° Northeast 127 146 300 -720 Descending New York TRACON
06:26PM 40.8500 -74.0500 47° Northeast  Level FlightAware Approximate
06:33PM 40.8501 -74.0608 47° Northeast  Level Estimated
06:34PM 40.8501 -74.0608 47° Northeast  Level Estimated